createdAt,value
2018-03-26T00:00:13.191Z,21.30
2018-03-26T00:02:41.495Z,19.77
2018-03-26T00:05:09.058Z,27.03
2018-03-26T00:07:36.617Z,29.27
2018-03-26T00:10:04.141Z,27.63
2018-03-26T00:12:32.462Z,23.33
2018-03-26T00:14:59.996Z,23.30
2018-03-26T00:17:28.298Z,24.33
2018-03-26T00:19:55.862Z,27.57
2018-03-26T00:22:23.386Z,25.47
2018-03-26T00:24:51.690Z,29.20
2018-03-26T00:27:20.193Z,30.53
2018-03-26T00:29:47.741Z,29.93
2018-03-26T00:32:15.265Z,28.10
2018-03-26T00:34:43.588Z,27.60
2018-03-26T00:37:11.098Z,27.40
2018-03-26T00:39:39.401Z,27.13
2018-03-26T00:42:06.921Z,28.63
2018-03-26T00:44:34.539Z,27.63
2018-03-26T00:47:02.065Z,24.77
2018-03-26T00:49:30.355Z,28.27
2018-03-26T00:51:58.658Z,28.47
2018-03-26T00:54:26.178Z,26.03
2018-03-26T00:56:54.494Z,25.13
2018-03-26T00:59:22.013Z,27.40
2018-03-26T01:01:50.321Z,32.70
2018-03-26T01:04:17.844Z,24.20
2018-03-26T01:06:45.389Z,22.27
2018-03-26T01:09:12.920Z,21.23
2018-03-26T01:11:40.460Z,26.40
2018-03-26T01:14:07.985Z,29.50
2018-03-26T01:16:35.522Z,29.73
2018-03-26T01:19:03.075Z,27.10
2018-03-26T01:21:30.627Z,26.70
2018-03-26T01:23:58.150Z,25.47
2018-03-26T01:26:26.443Z,29.63
2018-03-26T01:28:53.982Z,26.37
2018-03-26T01:31:21.511Z,28.57
2018-03-26T01:33:49.057Z,29.30
2018-03-26T01:36:16.614Z,28.00
2018-03-26T01:38:44.153Z,29.63
2018-03-26T01:41:11.677Z,32.23
2018-03-26T01:43:39.214Z,29.53
2018-03-26T01:46:06.734Z,31.10
2018-03-26T01:48:34.274Z,32.20
2018-03-26T01:51:02.557Z,32.97
2018-03-26T01:53:30.863Z,33.97
2018-03-26T01:55:58.387Z,31.77
2018-03-26T01:58:26.694Z,32.77
2018-03-26T02:00:54.212Z,33.30
2018-03-26T02:03:22.530Z,32.17
2018-03-26T02:05:50.049Z,33.13
2018-03-26T02:08:17.588Z,29.93
2018-03-26T02:10:45.105Z,32.97
2018-03-26T02:13:12.649Z,30.40
2018-03-26T02:15:41.110Z,33.40
2018-03-26T02:18:08.728Z,33.07
2018-03-26T02:20:36.266Z,30.57
2018-03-26T02:23:03.785Z,27.13
2018-03-26T02:25:31.327Z,33.00
2018-03-26T02:27:58.844Z,28.13
2018-03-26T02:30:27.151Z,31.53
2018-03-26T02:32:54.678Z,30.50
2018-03-26T02:35:22.992Z,29.60
2018-03-26T02:37:50.594Z,30.43
2018-03-26T02:40:18.104Z,29.57
2018-03-26T02:42:45.674Z,27.00
2018-03-26T02:45:13.209Z,28.20
2018-03-26T02:47:40.811Z,29.80
2018-03-26T02:50:08.362Z,30.37
2018-03-26T02:52:35.893Z,28.73
2018-03-26T02:55:03.430Z,31.43
2018-03-26T02:57:30.950Z,28.43
2018-03-26T02:59:58.494Z,33.07
2018-03-26T03:02:26.011Z,29.50
2018-03-26T03:04:54.319Z,34.13
2018-03-26T03:07:21.836Z,29.63
2018-03-26T03:09:49.378Z,26.57
2018-03-26T03:12:16.916Z,25.30
2018-03-26T03:14:44.437Z,24.07
2018-03-26T03:17:12.743Z,28.00
2018-03-26T03:19:40.330Z,25.97
2018-03-26T03:22:07.885Z,24.20
2018-03-26T03:24:35.397Z,23.00
2018-03-26T03:27:03.719Z,26.67
2018-03-26T03:29:31.245Z,24.20
2018-03-26T03:31:59.558Z,26.90
2018-03-26T03:34:27.078Z,24.37
2018-03-26T03:36:55.398Z,24.13
2018-03-26T03:39:22.960Z,25.70
2018-03-26T03:41:50.498Z,22.60
2018-03-26T03:44:18.027Z,24.90
2018-03-26T03:46:45.650Z,22.10
2018-03-26T03:49:13.172Z,25.70
2018-03-26T03:51:41.487Z,23.57
2018-03-26T03:54:09.010Z,22.17
2018-03-26T03:56:37.432Z,28.13
2018-03-26T03:59:04.966Z,23.27
2018-03-26T04:01:32.488Z,24.87
2018-03-26T04:04:00.031Z,24.90
2018-03-26T04:06:27.552Z,21.43
2018-03-26T04:08:55.099Z,19.40
2018-03-26T04:11:23.403Z,20.30
2018-03-26T04:13:50.942Z,20.07
2018-03-26T04:16:19.225Z,23.27
2018-03-26T04:18:46.770Z,22.00
2018-03-26T04:21:15.063Z,20.57
2018-03-26T04:23:43.372Z,20.13
2018-03-26T04:26:10.934Z,17.50
2018-03-26T04:28:38.473Z,16.63
2018-03-26T04:31:06.061Z,18.57
2018-03-26T04:33:33.597Z,21.30
2018-03-26T04:36:01.124Z,20.50
2018-03-26T04:38:28.662Z,20.07
2018-03-26T04:40:56.198Z,23.43
2018-03-26T04:43:23.860Z,22.47
2018-03-26T04:45:51.419Z,26.57
2018-03-26T04:48:19.085Z,23.70
2018-03-26T04:50:46.630Z,21.93
2018-03-26T04:53:14.206Z,19.70
2018-03-26T04:55:41.761Z,20.20
2018-03-26T04:58:09.283Z,19.70
2018-03-26T05:00:37.614Z,18.70
2018-03-26T05:03:05.138Z,19.80
2018-03-26T05:05:33.446Z,20.83
2018-03-26T05:08:00.970Z,20.50
2018-03-26T05:10:29.278Z,20.00
2018-03-26T05:12:56.856Z,19.03
2018-03-26T05:15:24.408Z,21.10
2018-03-26T05:17:51.975Z,23.17
2018-03-26T05:20:19.537Z,22.07
2018-03-26T05:22:47.134Z,21.13
2018-03-26T05:25:14.657Z,20.87
2018-03-26T05:27:42.222Z,21.60
2018-03-26T05:30:09.772Z,21.87
2018-03-26T05:32:37.350Z,21.00
2018-03-26T05:35:04.884Z,22.30
2018-03-26T05:37:32.401Z,24.53
2018-03-26T05:39:59.961Z,19.40
2018-03-26T05:42:27.494Z,20.50
2018-03-26T05:44:55.047Z,19.37
2018-03-26T05:47:22.570Z,18.60
2018-03-26T05:49:50.862Z,19.07
2018-03-26T05:52:18.418Z,17.10
2018-03-26T05:54:46.702Z,20.17
2018-03-26T05:57:14.292Z,18.87
2018-03-26T05:59:41.851Z,20.83
2018-03-26T06:02:09.441Z,21.17
2018-03-26T06:04:36.968Z,22.90
2018-03-26T06:07:04.511Z,22.50
2018-03-26T06:09:32.037Z,21.10
2018-03-26T06:11:59.584Z,21.67
2018-03-26T06:14:27.118Z,21.27
2018-03-26T06:17:06.671Z,19.93
2018-03-26T06:19:34.205Z,18.10
2018-03-26T06:22:01.751Z,19.50
2018-03-26T06:24:29.294Z,19.80
2018-03-26T06:26:56.841Z,17.20
2018-03-26T06:29:25.142Z,19.40
2018-03-26T06:31:52.687Z,18.80
2018-03-26T06:34:20.974Z,19.10
2018-03-26T06:39:50.440Z,17.80
2018-03-26T06:42:17.998Z,18.20
2018-03-26T06:44:45.533Z,23.90
2018-03-26T06:47:13.078Z,21.97
2018-03-26T06:49:41.371Z,18.20
2018-03-26T06:52:08.954Z,24.37
2018-03-26T06:54:36.493Z,22.13
2018-03-26T06:57:04.015Z,19.90
2018-03-26T06:59:31.557Z,16.20
2018-03-26T07:01:59.083Z,17.07
2018-03-26T07:04:26.623Z,17.07
2018-03-26T07:06:54.932Z,16.17
2018-03-26T07:09:22.494Z,21.07
2018-03-26T07:11:50.014Z,28.83
2018-03-26T07:14:18.322Z,29.87
2018-03-26T07:16:45.845Z,26.97
2018-03-26T07:19:14.173Z,24.53
2018-03-26T07:21:41.750Z,23.30
2018-03-26T07:24:09.258Z,24.63
2018-03-26T07:26:37.551Z,30.50
2018-03-26T07:29:05.088Z,26.20
2018-03-26T07:31:33.384Z,23.13
2018-03-26T07:34:00.925Z,23.60
2018-03-26T07:36:29.216Z,25.93
2018-03-26T07:38:56.806Z,24.20
2018-03-26T07:41:24.326Z,24.13
2018-03-26T07:43:52.648Z,23.20
2018-03-26T07:46:20.170Z,20.73
2018-03-26T07:48:48.479Z,23.23
2018-03-26T07:51:16.003Z,24.23
2018-03-26T07:53:44.294Z,27.13
2018-03-26T07:56:11.835Z,29.60
2018-03-26T07:58:40.127Z,25.17
2018-03-26T08:01:07.710Z,25.47
2018-03-26T08:03:35.236Z,21.60
2018-03-26T08:06:03.537Z,22.63
2018-03-26T08:08:31.057Z,22.30
2018-03-26T08:10:58.595Z,19.97
2018-03-26T08:13:26.117Z,18.27
2018-03-26T08:15:53.691Z,21.77
2018-03-26T08:18:21.218Z,22.13
2018-03-26T08:20:49.528Z,21.87
2018-03-26T08:23:17.089Z,19.47
2018-03-26T08:25:44.633Z,20.70
2018-03-26T08:28:12.214Z,25.40
2018-03-26T08:30:39.757Z,24.50
2018-03-26T08:33:07.273Z,24.50
2018-03-26T08:35:34.817Z,24.90
2018-03-26T08:38:02.343Z,27.30
2018-03-26T08:40:29.877Z,24.20
2018-03-26T08:42:58.166Z,25.33
2018-03-26T08:45:25.698Z,21.57
2018-03-26T08:47:53.315Z,22.40
2018-03-26T08:50:20.897Z,20.97
2018-03-26T08:52:48.440Z,25.83
2018-03-26T08:55:15.994Z,22.43
2018-03-26T08:57:43.533Z,21.23
2018-03-26T09:00:11.053Z,19.77
2018-03-26T09:02:38.585Z,18.17
2018-03-26T09:05:06.145Z,16.23
2018-03-26T09:07:33.690Z,19.17
2018-03-26T09:10:01.214Z,19.43
2018-03-26T09:12:29.520Z,18.43
2018-03-26T09:14:57.100Z,16.70
2018-03-26T09:17:24.638Z,18.83
2018-03-26T09:19:52.938Z,19.90
2018-03-26T09:22:20.481Z,19.17
2018-03-26T09:24:48.010Z,17.33
2018-03-26T09:27:15.555Z,19.93
2018-03-26T09:29:43.079Z,18.10
2018-03-26T09:32:10.617Z,17.37
2018-03-26T09:34:38.906Z,19.70
2018-03-26T09:37:06.445Z,20.10
2018-03-26T09:39:34.747Z,18.10
2018-03-26T09:42:02.266Z,21.60
2018-03-26T09:44:29.802Z,19.50
2018-03-26T09:46:57.317Z,19.10
2018-03-26T09:49:24.859Z,19.20
2018-03-26T09:51:53.137Z,19.87
2018-03-26T09:54:21.451Z,20.10
2018-03-26T09:56:48.970Z,21.23
2018-03-26T09:59:17.273Z,20.50
2018-03-26T10:01:50.433Z,20.00
2018-03-26T10:04:17.998Z,21.60
2018-03-26T10:06:45.603Z,21.10
2018-03-26T10:09:13.142Z,19.83
2018-03-26T10:11:40.725Z,22.80
2018-03-26T10:14:08.298Z,20.33
2018-03-26T10:16:35.803Z,19.00
2018-03-26T10:19:04.170Z,22.50
2018-03-26T10:21:31.685Z,22.40
2018-03-26T10:23:59.255Z,21.87
2018-03-26T10:26:26.791Z,20.80
2018-03-26T10:28:54.334Z,20.23
2018-03-26T10:31:22.626Z,21.37
2018-03-26T10:33:50.162Z,21.87
2018-03-26T10:36:18.446Z,20.00
2018-03-26T10:38:46.759Z,20.73
2018-03-26T10:41:14.322Z,21.10
2018-03-26T10:43:41.837Z,20.27
2018-03-26T10:46:09.446Z,23.57
2018-03-26T10:48:37.220Z,23.20
2018-03-26T10:51:04.764Z,23.40
2018-03-26T10:53:32.334Z,27.20
2018-03-26T10:55:59.885Z,42.27
2018-03-26T10:58:27.458Z,34.50
2018-03-26T11:00:55.015Z,40.57
2018-03-26T11:03:22.544Z,53.97
2018-03-26T11:05:50.853Z,42.17
2018-03-26T11:08:18.386Z,90.03
2018-03-26T11:10:46.700Z,53.43
2018-03-26T11:13:14.254Z,60.10
2018-03-26T11:15:41.804Z,42.13
2018-03-26T11:18:09.322Z,34.40
2018-03-26T11:20:36.891Z,27.37
2018-03-26T11:23:04.406Z,25.37
2018-03-26T11:25:31.959Z,24.33
2018-03-26T11:27:59.549Z,27.33
2018-03-26T11:30:27.079Z,22.40
2018-03-26T11:32:54.626Z,26.13
2018-03-26T11:35:22.149Z,22.67
2018-03-26T11:37:49.699Z,23.33
2018-03-26T11:40:17.990Z,24.67
2018-03-26T11:42:46.295Z,21.20
2018-03-26T11:45:13.818Z,19.67
2018-03-26T11:47:41.354Z,19.53
2018-03-26T11:50:08.870Z,25.53
2018-03-26T11:52:36.459Z,26.30
2018-03-26T11:55:03.978Z,26.90
2018-03-26T11:57:32.295Z,24.90
2018-03-26T11:59:59.866Z,26.50
2018-03-26T12:02:27.410Z,28.03
2018-03-26T12:04:54.929Z,28.13
2018-03-26T12:07:23.239Z,29.23
2018-03-26T12:09:50.762Z,29.93
2018-03-26T12:12:18.302Z,26.73
2018-03-26T12:14:45.830Z,31.97
2018-03-26T12:17:13.350Z,29.27
2018-03-26T12:19:52.875Z,36.77
2018-03-26T12:22:20.394Z,26.43
2018-03-26T12:24:59.956Z,29.27
2018-03-26T12:27:27.501Z,27.57
2018-03-26T12:30:07.011Z,26.83
2018-03-26T12:32:34.572Z,25.03
2018-03-26T12:35:14.822Z,23.33
2018-03-26T12:37:43.149Z,24.03
2018-03-26T12:40:22.626Z,27.00
2018-03-26T12:42:51.685Z,27.17
2018-03-26T12:45:31.158Z,26.73
2018-03-26T12:47:58.718Z,27.50
2018-03-26T12:50:38.258Z,30.27
2018-03-26T12:53:05.802Z,27.80
2018-03-26T12:55:33.338Z,27.43
2018-03-26T12:58:12.722Z,33.20
2018-03-26T13:00:40.334Z,28.93
2018-03-26T13:03:07.904Z,29.87
2018-03-26T13:05:35.442Z,26.90
2018-03-26T13:08:02.962Z,29.90
2018-03-26T13:10:30.502Z,28.40
2018-03-26T13:12:58.026Z,28.77
2018-03-26T13:15:25.566Z,28.93
2018-03-26T13:17:53.854Z,30.77
2018-03-26T13:20:21.432Z,27.13
2018-03-26T13:22:48.962Z,26.67
2018-03-26T13:25:17.282Z,26.07
2018-03-26T13:27:44.832Z,28.03
2018-03-26T13:30:12.353Z,25.37
2018-03-26T13:32:40.672Z,27.50
2018-03-26T13:35:08.197Z,23.70
2018-03-26T13:37:36.607Z,27.70
2018-03-26T13:40:04.130Z,28.43
2018-03-26T13:42:32.442Z,25.77
2018-03-26T13:44:59.959Z,28.13
2018-03-26T13:47:28.274Z,29.30
2018-03-26T13:49:55.853Z,28.33
2018-03-26T13:52:23.390Z,30.00
2018-03-26T13:54:50.916Z,32.83
2018-03-26T13:57:18.468Z,31.77
2018-03-26T13:59:46.095Z,33.20
2018-03-26T14:02:13.656Z,30.33
2018-03-26T14:04:41.209Z,28.43
2018-03-26T14:07:08.743Z,28.40
2018-03-26T14:09:48.902Z,29.97
2018-03-26T14:12:28.397Z,29.30
2018-03-26T14:15:07.846Z,28.70
2018-03-26T14:17:47.196Z,27.53
2018-03-26T14:20:15.494Z,28.97
2018-03-26T14:22:43.906Z,29.43
2018-03-26T14:25:11.443Z,27.13
2018-03-26T14:27:38.989Z,31.00
2018-03-26T14:30:07.306Z,29.70
2018-03-26T14:32:34.869Z,26.37
2018-03-26T14:35:14.343Z,29.60
2018-03-26T14:37:41.903Z,28.97
2018-03-26T14:40:09.435Z,27.47
2018-03-26T14:42:36.966Z,28.67
2018-03-26T14:45:05.273Z,26.57
2018-03-26T14:47:32.793Z,25.30
2018-03-26T14:50:01.102Z,24.70
2018-03-26T14:52:28.669Z,26.33
2018-03-26T14:54:56.213Z,28.27
2018-03-26T14:57:23.733Z,25.50
2018-03-26T14:59:51.278Z,28.40
2018-03-26T15:02:18.798Z,25.40
2018-03-26T15:04:46.380Z,25.60
2018-03-26T15:07:13.905Z,26.27
2018-03-26T15:09:42.190Z,26.07
2018-03-26T15:12:09.733Z,22.93
2018-03-26T15:14:38.023Z,23.20
2018-03-26T15:17:06.332Z,21.33
2018-03-26T15:19:33.893Z,22.60
2018-03-26T15:22:01.434Z,23.07
2018-03-26T15:24:29.022Z,23.50
2018-03-26T15:26:56.561Z,21.73
2018-03-26T15:29:24.090Z,19.00
2018-03-26T15:31:52.406Z,20.87
2018-03-26T15:34:19.978Z,20.50
2018-03-26T15:36:47.522Z,18.43
2018-03-26T15:39:15.051Z,18.97
2018-03-26T15:41:43.364Z,19.03
2018-03-26T15:44:10.887Z,18.40
2018-03-26T15:46:39.209Z,20.30
2018-03-26T15:49:06.730Z,22.40
2018-03-26T15:51:35.043Z,21.90
2018-03-26T15:54:02.607Z,18.77
2018-03-26T15:56:30.145Z,19.80
2018-03-26T15:58:58.427Z,19.10
2018-03-26T16:01:26.009Z,21.27
2018-03-26T16:03:53.579Z,21.50
2018-03-26T16:06:21.098Z,18.83
2018-03-26T16:08:49.405Z,18.83
2018-03-26T16:11:16.931Z,20.60
2018-03-26T16:13:45.233Z,19.17
2018-03-26T16:16:12.863Z,18.97
2018-03-26T16:18:40.476Z,19.23
2018-03-26T16:21:08.015Z,21.47
2018-03-26T16:23:35.557Z,20.10
2018-03-26T16:26:03.837Z,18.20
2018-03-26T16:28:32.142Z,17.00
2018-03-26T16:30:59.713Z,14.90
2018-03-26T16:33:27.257Z,16.93
2018-03-26T16:35:54.838Z,15.33
2018-03-26T16:38:22.398Z,15.37
2018-03-26T16:40:49.912Z,18.00
2018-03-26T16:43:17.450Z,21.63
2018-03-26T16:45:45.001Z,24.47
2018-03-26T16:48:12.555Z,22.30
2018-03-26T16:50:40.073Z,22.80
2018-03-26T16:53:08.358Z,25.33
2018-03-26T16:55:35.939Z,25.13
2018-03-26T16:58:03.500Z,22.13
2018-03-26T17:00:31.048Z,20.33
2018-03-26T17:02:58.570Z,18.37
2018-03-26T17:05:26.904Z,17.53
2018-03-26T17:07:54.430Z,28.53
2018-03-26T17:10:22.744Z,23.97
2018-03-26T17:12:50.280Z,22.80
2018-03-26T17:15:17.818Z,24.17
2018-03-26T17:17:46.107Z,21.97
2018-03-26T17:20:14.418Z,22.43
2018-03-26T17:22:41.937Z,23.37
2018-03-26T17:25:12.222Z,24.30
2018-03-26T17:27:39.746Z,20.70
2018-03-26T17:30:07.284Z,17.90
2018-03-26T17:32:35.570Z,18.67
2018-03-26T17:35:03.880Z,21.73
2018-03-26T17:37:31.407Z,18.77
2018-03-26T17:39:59.735Z,21.20
2018-03-26T17:42:27.291Z,21.37
2018-03-26T17:44:54.814Z,21.43
2018-03-26T17:47:23.124Z,21.97
2018-03-26T17:49:50.690Z,22.60
2018-03-26T17:52:18.234Z,23.73
2018-03-26T17:54:45.811Z,23.80
2018-03-26T17:57:13.380Z,23.93
2018-03-26T17:59:40.936Z,22.93
2018-03-26T18:02:08.478Z,21.70
2018-03-26T18:04:35.997Z,22.60
2018-03-26T18:07:03.592Z,23.93
2018-03-26T18:09:31.084Z,26.57
2018-03-26T18:11:58.622Z,23.70
2018-03-26T18:14:26.143Z,26.30
2018-03-26T18:16:53.684Z,24.30
2018-03-26T18:19:21.210Z,24.67
2018-03-26T18:21:48.750Z,22.33
2018-03-26T18:24:16.274Z,24.53
2018-03-26T18:26:43.809Z,22.97
2018-03-26T18:29:11.331Z,18.53
2018-03-26T18:31:38.914Z,18.53
2018-03-26T18:34:06.478Z,18.90
2018-03-26T18:36:34.040Z,18.63
2018-03-26T18:39:01.596Z,23.37
2018-03-26T18:41:29.117Z,20.70
2018-03-26T18:43:57.421Z,22.10
2018-03-26T18:46:24.941Z,21.03
2018-03-26T18:48:52.483Z,22.20
2018-03-26T18:51:20.028Z,18.63
2018-03-26T18:53:47.573Z,23.73
2018-03-26T18:56:15.134Z,21.30
2018-03-26T18:58:42.671Z,21.57
2018-03-26T19:01:10.190Z,21.90
2018-03-26T19:03:37.730Z,23.10
2018-03-26T19:06:05.255Z,23.53
2018-03-26T19:08:32.801Z,19.57
2018-03-26T19:11:01.090Z,21.47
2018-03-26T19:13:28.638Z,26.00
2018-03-26T19:15:56.949Z,23.10
2018-03-26T19:18:24.497Z,22.73
2018-03-26T19:20:52.086Z,21.77
2018-03-26T19:23:19.631Z,18.13
2018-03-26T19:25:47.154Z,23.53
2018-03-26T19:28:15.473Z,22.37
2018-03-26T19:30:43.004Z,20.37
2018-03-26T19:33:11.318Z,21.93
2018-03-26T19:35:38.871Z,21.00
2018-03-26T19:38:06.388Z,23.20
2018-03-26T19:40:34.713Z,21.30
2018-03-26T19:43:02.235Z,21.93
2018-03-26T19:45:30.542Z,19.93
2018-03-26T19:47:58.062Z,21.17
2018-03-26T19:50:25.669Z,25.20
2018-03-26T19:52:53.196Z,20.70
2018-03-26T19:55:21.504Z,19.23
2018-03-26T19:57:49.030Z,19.80
2018-03-26T20:00:17.351Z,19.37
2018-03-26T20:02:44.870Z,16.80
2018-03-26T20:05:12.496Z,18.23
2018-03-26T20:07:40.010Z,17.27
2018-03-26T20:10:07.545Z,16.43
2018-03-26T20:12:35.827Z,18.37
2018-03-26T20:15:04.142Z,21.93
2018-03-26T20:17:31.658Z,26.07
2018-03-26T20:19:59.977Z,27.20
2018-03-26T20:22:27.497Z,23.47
2018-03-26T20:24:55.811Z,21.07
2018-03-26T20:27:23.339Z,21.27
2018-03-26T20:29:51.655Z,18.43
2018-03-26T20:32:19.181Z,16.43
2018-03-26T20:34:47.471Z,16.60
2018-03-26T20:37:15.060Z,19.97
2018-03-26T20:39:42.622Z,20.97
2018-03-26T20:42:10.161Z,19.73
2018-03-26T20:44:37.685Z,20.10
2018-03-26T20:47:05.996Z,18.63
2018-03-26T20:49:33.517Z,21.33
2018-03-26T20:52:01.054Z,25.93
2018-03-26T20:54:28.578Z,25.57
2018-03-26T20:56:56.151Z,24.00
2018-03-26T20:59:23.672Z,21.63
2018-03-26T21:01:51.978Z,19.97
2018-03-26T21:04:19.551Z,23.27
2018-03-26T21:06:47.089Z,19.37
2018-03-26T21:09:14.612Z,18.27
2018-03-26T21:11:42.157Z,16.97
2018-03-26T21:14:09.681Z,20.87
2018-03-26T21:16:37.233Z,16.70
2018-03-26T21:19:04.759Z,16.70
2018-03-26T21:21:32.279Z,18.70
2018-03-26T21:23:59.814Z,18.87
2018-03-26T21:26:27.330Z,19.27
2018-03-26T21:28:54.958Z,20.57
2018-03-26T21:31:22.518Z,24.00
2018-03-26T21:33:50.057Z,22.93
2018-03-26T21:36:17.634Z,25.20
2018-03-26T21:38:45.194Z,24.83
2018-03-26T21:41:12.709Z,23.03
2018-03-26T21:43:41.015Z,25.10
2018-03-26T21:46:08.594Z,19.80
2018-03-26T21:48:36.138Z,17.80
2018-03-26T21:51:03.658Z,17.90
2018-03-26T21:53:31.204Z,21.47
2018-03-26T21:55:58.740Z,20.43
2018-03-26T21:58:26.289Z,21.63
2018-03-26T22:00:53.810Z,18.90
2018-03-26T22:03:22.115Z,18.47
2018-03-26T22:05:49.639Z,17.53
2018-03-26T22:08:17.189Z,20.47
2018-03-26T22:10:44.814Z,20.37
2018-03-26T22:13:12.336Z,22.03
2018-03-26T22:15:40.646Z,19.77
2018-03-26T22:18:08.172Z,19.60
2018-03-26T22:20:36.478Z,21.93
2018-03-26T22:23:04.051Z,21.83
2018-03-26T22:25:31.591Z,19.50
2018-03-26T22:27:59.167Z,20.07
2018-03-26T22:30:26.707Z,19.13
2018-03-26T22:32:54.295Z,20.37
2018-03-26T22:35:21.841Z,22.30
2018-03-26T22:37:49.362Z,22.87
2018-03-26T22:40:17.671Z,22.47
2018-03-26T22:42:45.197Z,24.10
2018-03-26T22:45:12.735Z,24.60
2018-03-26T22:47:40.272Z,22.03
2018-03-26T22:50:07.809Z,23.93
2018-03-26T22:52:35.438Z,22.20
2018-03-26T22:55:02.959Z,19.23
2018-03-26T22:57:30.478Z,18.93
2018-03-26T22:59:58.077Z,20.17
2018-03-26T23:02:25.597Z,17.90
2018-03-26T23:04:53.910Z,18.97
2018-03-26T23:07:21.452Z,18.77
2018-03-26T23:09:48.995Z,23.00
2018-03-26T23:12:17.272Z,22.73
2018-03-26T23:14:45.593Z,21.90
2018-03-26T23:17:13.149Z,20.90
2018-03-26T23:19:40.718Z,18.57
2018-03-26T23:22:08.235Z,17.43
2018-03-26T23:24:36.530Z,19.50
2018-03-26T23:27:04.070Z,19.60
2018-03-26T23:29:32.390Z,22.33
2018-03-26T23:31:59.953Z,20.73
2018-03-26T23:34:27.477Z,21.10
2018-03-26T23:36:55.794Z,21.77
2018-03-26T23:39:23.312Z,19.87
2018-03-26T23:41:51.617Z,18.87
2018-03-26T23:44:19.145Z,18.00
2018-03-26T23:46:47.454Z,19.23
2018-03-26T23:49:14.982Z,18.40
2018-03-26T23:51:42.594Z,16.67
2018-03-26T23:54:10.118Z,15.70
2018-03-26T23:56:37.708Z,18.40
2018-03-26T23:59:05.240Z,16.30
